• Join FlightAware (Why Join?)
  • Login
  • US Flag 
04:58AM EDT


 

Airport Tracker/Info


-or-


 

Live Flight TrackerFlight Track Log ✈ N356RK ✈ 20-Sep-2013 ✈ KLCI - KSYR

Flight Track Log - Related Links

Times and Time Zones

All times are in EDT time to prevent confusion due to time zone crossing. See the N356RK flight status page for this flight to view local times or setup timezone preferences in your user account.

Time Position Orientation Groundspeed Altitude Reporting Facility
EDT Latitude Longitude Course Direction KTS MPH feet Rate Location/Type
03:50PM 43.5710 -71.6400 263° West 157 181 4,400  Level FlightAware
03:51PM 43.5680 -71.6730 263° West 159 183 4,400  Level FlightAware
03:52PM 43.5590 -71.7770 263° West 162 186 4,400  Level FlightAware
03:53PM 43.5580 -71.7930 265° West 162 186 4,400  Level FlightAware
03:53PM 43.5560 -71.8180 264° West 161 185 4,400  Level FlightAware
03:53PM 43.5540 -71.8430 264° West 162 186 4,400  Level FlightAware
03:54PM 43.5520 -71.8610 261° West 163 188 4,400  Level FlightAware
03:54PM 43.5510 -71.8740 264° West 163 188 4,400  Level FlightAware
03:54PM 43.5490 -71.8950 263° West 161 185 4,400  Level FlightAware
03:55PM 43.5460 -71.9250 262° West 161 185 4,400  Level FlightAware
03:57PM 43.5373 -72.0267 263° West  Level Estimated
03:58PM 43.5321 -72.0866 263° West  Level Estimated
03:59PM 43.5270 -72.1464 263° West  Level Estimated
04:00PM 43.5217 -72.2062 263° West  Level Estimated
04:01PM 43.5165 -72.2660 263° West  Level Estimated
04:02PM 43.5112 -72.3258 263° West  Level Estimated
04:03PM 43.5059 -72.3856 263° West  Level Estimated
04:04PM 43.5005 -72.4453 263° West  Level Estimated
04:05PM 43.4951 -72.5051 263° West  Level Estimated
04:06PM 43.4897 -72.5648 263° West  Level Estimated
04:07PM 43.4843 -72.6246 263° West  Level Estimated
04:08PM 43.4788 -72.6843 263° West  Level Estimated
04:09PM 43.4733 -72.7440 263° West  Level Estimated
04:10PM 43.4678 -72.8037 263° West  Level Estimated
04:11PM 43.4622 -72.8634 263° West  Level Estimated
04:12PM 43.4566 -72.9231 263° West  Level Estimated
04:13PM 43.4510 -72.9828 263° West  Level Estimated
04:14PM 43.4453 -73.0424 263° West  Level Estimated
04:15PM 43.4396 -73.1021 263° West  Level Estimated
04:16PM 43.4339 -73.1617 262° West  Level Estimated
04:17PM 43.4281 -73.2214 262° West  Level Estimated
04:18PM 43.4224 -73.2810 262° West  Level Estimated
04:19PM 43.4165 -73.3406 262° West  Level Estimated
04:20PM 43.4107 -73.4001 262° West  Level Estimated
04:21PM 43.4048 -73.4597 262° West  Level Estimated
04:22PM 43.3989 -73.5193 262° West  Level Estimated
04:23PM 43.3929 -73.5789 262° West  Level Estimated
04:24PM 43.3870 -73.6384 262° West  Level Estimated
04:25PM 43.3810 -73.6979 262° West  Level Estimated
04:26PM 43.3750 -73.7575 262° West  Level Estimated
04:27PM 43.3689 -73.8170 262° West  Level Estimated
04:28PM 43.3628 -73.8765 262° West  Level Estimated
04:29PM 43.3567 -73.9360 262° West  Level Estimated
04:30PM 43.3505 -73.9954 262° West  Level Estimated
04:31PM 43.3443 -74.0549 262° West  Level Estimated
04:32PM 43.3381 -74.1143 262° West  Level Estimated
04:33PM 43.3319 -74.1738 262° West  Level Estimated
04:34PM 43.3256 -74.2332 262° West  Level Estimated
04:35PM 43.3193 -74.2926 262° West  Level Estimated
04:36PM 43.3129 -74.3520 262° West  Level Estimated
04:37PM 43.3066 -74.4114 262° West  Level Estimated
04:38PM 43.3002 -74.4708 262° West  Level Estimated
04:39PM 43.2937 -74.5301 262° West  Level Estimated
04:40PM 43.2873 -74.5895 262° West  Level Estimated
04:41PM 43.2808 -74.6488 261° West  Level Estimated
04:42PM 43.2743 -74.7082 261° West  Level Estimated
04:43PM 43.2677 -74.7675 261° West  Level Estimated
04:44PM 43.2611 -74.8268 261° West  Level Estimated
04:45PM 43.2545 -74.8860 261° West  Level Estimated
04:46PM 43.2478 -74.9453 261° West  Level Estimated
04:47PM 43.2412 -75.0046 261° West  Level Estimated
04:48PM 43.2345 -75.0638 261° West  Level Estimated
04:49PM 43.2277 -75.1231 261° West  Level Estimated
04:50PM 43.2210 -75.1823 261° West  Level Estimated
04:51PM 43.2141 -75.2415 261° West  Level Estimated
04:51PM 43.2000 -75.3650 261° West 159 183 4,400  Level FlightAware
04:52PM 43.2073 -75.3007 261° West  Level Estimated
04:52PM 43.1960 -75.3940 259° West 159 183 4,400  Level FlightAware
04:52PM 43.1940 -75.4170 263° West 158 182 4,400  Level FlightAware
04:53PM 43.1910 -75.4410 260° West 159 183 4,400  Level FlightAware
04:53PM 43.1890 -75.4550 259° West 158 182 4,400  Level FlightAware
04:53PM 43.1870 -75.4720 261° West 159 183 4,400  Level FlightAware
04:54PM 43.1850 -75.4920 262° West 158 182 4,400  Level FlightAware
04:54PM 43.1830 -75.5120 262° West 157 181 4,400  Level FlightAware
04:54PM 43.1810 -75.5280 260° West 157 181 4,400  Level FlightAware
04:55PM 43.1790 -75.5460 261° West 158 182 4,400  Level FlightAware
04:55PM 43.1760 -75.5690 260° West 157 181 4,400 -180 Level FlightAware
04:55PM 43.1740 -75.5890 262° West 161 185 4,300 -300 Descending FlightAware
04:56PM 43.1710 -75.6110 259° West 165 190 4,200 -300 Descending FlightAware
04:56PM 43.1690 -75.6320 263° West 167 192 4,100 -300 Descending FlightAware
04:56PM 43.1660 -75.6550 260° West 170 196 4,000 -420 Descending FlightAware
04:57PM 43.1630 -75.6780 260° West 172 198 3,800 -600 Descending FlightAware
04:57PM 43.1600 -75.7010 260° West 174 200 3,600 -540 Descending FlightAware
04:57PM 43.1580 -75.7180 261° West 176 203 3,500 -540 Descending FlightAware
04:58PM 43.1560 -75.7400 263° West 175 201 3,300 -480 Descending FlightAware
04:58PM 43.1530 -75.7640 260° West 174 200 3,200 -360 Descending FlightAware
04:58PM 43.1510 -75.7770 258° West 173 199 3,100 -540 Descending FlightAware
04:59PM 43.1480 -75.8000 260° West 174 200 2,900 -600 Descending FlightAware
04:59PM 43.1460 -75.8220 263° West 175 201 2,700 -600 Descending FlightAware
04:59PM 43.1430 -75.8500 262° West 176 203 2,500 -600 Descending FlightAware
05:00PM 43.1400 -75.8720 259° West 176 203 2,300 -480 Descending FlightAware
05:00PM 43.1370 -75.8930 259° West 175 201 2,200 -480 Descending FlightAware
05:00PM 43.1350 -75.9150 263° West 176 203 2,000 -600 Descending FlightAware
05:01PM 43.1320 -75.9370 259° West 174 200 1,800 -540 Descending FlightAware
05:01PM 43.1300 -75.9540 261° West 173 199 1,700  Descending FlightAware
05:01PM 43.1260 -75.9750 255° West 166 191 1,800  Climbing FlightAware
05:02PM 43.1220 -75.9950 255° West 163 188 1,700 -420 Descending FlightAware
05:02PM 43.1170 -76.0170 253° West 160 184 1,500 -600 Descending FlightAware
05:02PM 43.1120 -76.0370 251° West 156 180 1,300 -900 Descending FlightAware
05:02PM 43.1110 -76.0450 260° West 153 176 1,100 -720 Descending FlightAware
05:03PM 43.1100 -76.0630 266° West 137 158 1,000 -420 Descending FlightAware
05:03PM 43.1100 -76.0740 270° West 118 136 900 -780 Descending FlightAware
05:03PM 43.1090 -76.0870 264° West 123 142 600 -420 Descending FlightAware
05:04PM 43.1090 -76.1030 270° West 123 142 600  Level FlightAware
05:11PM 43.1000 -76.1000 124° Southeast  Level FlightAware Approximate
05:12PM 43.1112 -76.1063 124° Southeast  Level Estimated
05:13PM 43.1112 -76.1063 124° Southeast  Level Estimated
05:14PM 43.1112 -76.1063 124° Southeast  Level Estimated
05:15PM 43.1112 -76.1063 124° Southeast  Level Estimated
05:16PM 43.1112 -76.1063 124° Southeast  Level Estimated
05:17PM 43.1112 -76.1063 124° Southeast  Level Estimated
05:18PM 43.1112 -76.1063 124° Southeast  Level Estimated
05:19PM 43.1112 -76.1063 124° Southeast  Level Estimated
05:20PM 43.1112 -76.1063 124° Southeast  Level Estimated
05:21PM 43.1112 -76.1063 124° Southeast  Level Estimated